sensor_id;sensor_type;location;lat;lon;timestamp;P1;durP1;ratioP1;P2;durP2;ratioP2
66970;SDS011;53901;51.466;-2.588;2023-11-19T00:00:05;38.22;;;5.13;;
66970;SDS011;53901;51.466;-2.588;2023-11-19T00:02:36;25.50;;;4.20;;
66970;SDS011;53901;51.466;-2.588;2023-11-19T00:05:01;35.38;;;4.68;;
66970;SDS011;53901;51.466;-2.588;2023-11-19T00:07:27;40.08;;;4.85;;
66970;SDS011;53901;51.466;-2.588;2023-11-19T00:09:52;39.38;;;5.45;;
66970;SDS011;53901;51.466;-2.588;2023-11-19T00:12:20;26.15;;;4.30;;
66970;SDS011;53901;51.466;-2.588;2023-11-19T00:14:45;36.13;;;5.05;;
66970;SDS011;53901;51.466;-2.588;2023-11-19T00:17:11;31.92;;;4.60;;
66970;SDS011;53901;51.466;-2.588;2023-11-19T00:19:36;32.55;;;5.28;;
66970;SDS011;53901;51.466;-2.588;2023-11-19T00:22:02;43.58;;;5.97;;
66970;SDS011;53901;51.466;-2.588;2023-11-19T00:24:28;41.17;;;6.35;;
66970;SDS011;53901;51.466;-2.588;2023-11-19T00:26:55;26.45;;;4.35;;
66970;SDS011;53901;51.466;-2.588;2023-11-19T00:29:21;32.05;;;4.30;;
66970;SDS011;53901;51.466;-2.588;2023-11-19T00:31:46;42.13;;;5.57;;
66970;SDS011;53901;51.466;-2.588;2023-11-19T00:34:12;33.97;;;5.18;;
66970;SDS011;53901;51.466;-2.588;2023-11-19T00:36:38;29.65;;;4.85;;
66970;SDS011;53901;51.466;-2.588;2023-11-19T00:39:04;34.80;;;6.00;;
66970;SDS011;53901;51.466;-2.588;2023-11-19T00:41:30;28.38;;;4.82;;
66970;SDS011;53901;51.466;-2.588;2023-11-19T00:43:56;36.05;;;5.70;;
66970;SDS011;53901;51.466;-2.588;2023-11-19T00:46:21;30.25;;;6.15;;
66970;SDS011;53901;51.466;-2.588;2023-11-19T00:48:46;42.47;;;5.32;;
66970;SDS011;53901;51.466;-2.588;2023-11-19T00:51:12;30.20;;;4.95;;
66970;SDS011;53901;51.466;-2.588;2023-11-19T00:53:37;29.40;;;4.30;;
66970;SDS011;53901;51.466;-2.588;2023-11-19T00:56:03;30.67;;;4.65;;
66970;SDS011;53901;51.466;-2.588;2023-11-19T00:58:29;31.98;;;5.53;;
66970;SDS011;53901;51.466;-2.588;2023-11-19T01:00:54;38.67;;;5.55;;
66970;SDS011;53901;51.466;-2.588;2023-11-19T01:03:19;24.23;;;4.10;;
66970;SDS011;53901;51.466;-2.588;2023-11-19T01:05:45;31.60;;;4.70;;
66970;SDS011;53901;51.466;-2.588;2023-11-19T01:08:12;37.33;;;4.78;;
66970;SDS011;53901;51.466;-2.588;2023-11-19T01:10:37;38.83;;;4.90;;
66970;SDS011;53901;51.466;-2.588;2023-11-19T01:13:02;35.28;;;4.45;;
66970;SDS011;53901;51.466;-2.588;2023-11-19T01:15:30;27.33;;;4.03;;
66970;SDS011;53901;51.466;-2.588;2023-11-19T01:17:56;32.47;;;4.55;;
66970;SDS011;53901;51.466;-2.588;2023-11-19T01:20:22;29.65;;;4.00;;
66970;SDS011;53901;51.466;-2.588;2023-11-19T01:22:47;37.92;;;5.05;;
66970;SDS011;53901;51.466;-2.588;2023-11-19T01:25:13;37.70;;;4.95;;
66970;SDS011;53901;51.466;-2.588;2023-11-19T01:27:39;34.63;;;3.92;;
66970;SDS011;53901;51.466;-2.588;2023-11-19T01:30:04;26.90;;;4.18;;
66970;SDS011;53901;51.466;-2.588;2023-11-19T01:32:31;28.65;;;4.22;;
66970;SDS011;53901;51.466;-2.588;2023-11-19T01:34:56;29.75;;;4.30;;
66970;SDS011;53901;51.466;-2.588;2023-11-19T01:37:22;28.13;;;4.25;;
66970;SDS011;53901;51.466;-2.588;2023-11-19T01:39:47;26.67;;;4.60;;
66970;SDS011;53901;51.466;-2.588;2023-11-19T01:42:13;27.30;;;4.55;;
66970;SDS011;53901;51.466;-2.588;2023-11-19T01:44:38;39.42;;;5.88;;
66970;SDS011;53901;51.466;-2.588;2023-11-19T01:47:03;29.88;;;4.80;;
66970;SDS011;53901;51.466;-2.588;2023-11-19T01:49:30;36.70;;;5.40;;
66970;SDS011;53901;51.466;-2.588;2023-11-19T01:51:55;26.23;;;3.72;;
66970;SDS011;53901;51.466;-2.588;2023-11-19T01:54:22;33.65;;;3.88;;
66970;SDS011;53901;51.466;-2.588;2023-11-19T01:56:48;30.63;;;4.50;;
66970;SDS011;53901;51.466;-2.588;2023-11-19T01:59:14;35.17;;;5.03;;
66970;SDS011;53901;51.466;-2.588;2023-11-19T02:01:40;33.97;;;4.38;;
66970;SDS011;53901;51.466;-2.588;2023-11-19T02:04:06;35.05;;;5.78;;
66970;SDS011;53901;51.466;-2.588;2023-11-19T02:06:32;36.50;;;4.82;;
66970;SDS011;53901;51.466;-2.588;2023-11-19T02:08:58;34.80;;;4.25;;
66970;SDS011;53901;51.466;-2.588;2023-11-19T02:11:23;31.05;;;4.55;;
66970;SDS011;53901;51.466;-2.588;2023-11-19T02:13:54;32.10;;;4.85;;
66970;SDS011;53901;51.466;-2.588;2023-11-19T02:16:20;31.00;;;5.10;;
66970;SDS011;53901;51.466;-2.588;2023-11-19T02:18:45;31.77;;;4.78;;
66970;SDS011;53901;51.466;-2.588;2023-11-19T02:21:10;23.58;;;3.17;;
66970;SDS011;53901;51.466;-2.588;2023-11-19T02:23:36;27.42;;;4.88;;
66970;SDS011;53901;51.466;-2.588;2023-11-19T02:28:51;37.33;;;4.82;;
66970;SDS011;53901;51.466;-2.588;2023-11-19T02:31:17;31.25;;;5.13;;
66970;SDS011;53901;51.466;-2.588;2023-11-19T02:33:44;29.20;;;5.05;;
66970;SDS011;53901;51.466;-2.588;2023-11-19T02:36:09;31.35;;;4.65;;
66970;SDS011;53901;51.466;-2.588;2023-11-19T02:38:35;30.38;;;3.92;;
66970;SDS011;53901;51.466;-2.588;2023-11-19T02:41:04;33.13;;;4.00;;
66970;SDS011;53901;51.466;-2.588;2023-11-19T02:43:31;27.08;;;3.50;;
66970;SDS011;53901;51.466;-2.588;2023-11-19T02:45:58;20.85;;;3.38;;
66970;SDS011;53901;51.466;-2.588;2023-11-19T02:48:26;25.27;;;4.22;;
66970;SDS011;53901;51.466;-2.588;2023-11-19T02:50:52;28.25;;;4.28;;
66970;SDS011;53901;51.466;-2.588;2023-11-19T02:53:17;20.38;;;3.35;;
66970;SDS011;53901;51.466;-2.588;2023-11-19T02:55:43;31.92;;;4.60;;
66970;SDS011;53901;51.466;-2.588;2023-11-19T02:58:13;32.42;;;4.35;;
66970;SDS011;53901;51.466;-2.588;2023-11-19T03:00:45;23.50;;;3.47;;
66970;SDS011;53901;51.466;-2.588;2023-11-19T03:03:19;25.88;;;4.47;;
66970;SDS011;53901;51.466;-2.588;2023-11-19T03:05:48;29.58;;;5.28;;
66970;SDS011;53901;51.466;-2.588;2023-11-19T03:08:14;28.27;;;4.05;;
66970;SDS011;53901;51.466;-2.588;2023-11-19T03:10:42;28.92;;;4.30;;
66970;SDS011;53901;51.466;-2.588;2023-11-19T03:13:11;27.13;;;4.07;;
66970;SDS011;53901;51.466;-2.588;2023-11-19T03:15:40;32.13;;;5.93;;
66970;SDS011;53901;51.466;-2.588;2023-11-19T03:18:06;26.10;;;4.07;;
66970;SDS011;53901;51.466;-2.588;2023-11-19T03:20:32;28.98;;;4.15;;
66970;SDS011;53901;51.466;-2.588;2023-11-19T03:22:57;24.80;;;4.75;;
66970;SDS011;53901;51.466;-2.588;2023-11-19T03:25:25;24.25;;;3.85;;
66970;SDS011;53901;51.466;-2.588;2023-11-19T03:28:02;30.73;;;4.32;;
66970;SDS011;53901;51.466;-2.588;2023-11-19T03:30:28;28.13;;;4.07;;
66970;SDS011;53901;51.466;-2.588;2023-11-19T03:32:55;25.90;;;3.88;;
66970;SDS011;53901;51.466;-2.588;2023-11-19T03:35:23;27.25;;;3.88;;
66970;SDS011;53901;51.466;-2.588;2023-11-19T03:37:49;38.70;;;5.10;;
66970;SDS011;53901;51.466;-2.588;2023-11-19T03:40:15;32.28;;;4.72;;
66970;SDS011;53901;51.466;-2.588;2023-11-19T03:42:41;27.60;;;4.40;;
66970;SDS011;53901;51.466;-2.588;2023-11-19T03:45:06;40.80;;;5.10;;
66970;SDS011;53901;51.466;-2.588;2023-11-19T03:47:34;36.13;;;4.85;;
66970;SDS011;53901;51.466;-2.588;2023-11-19T03:49:59;37.38;;;5.47;;
66970;SDS011;53901;51.466;-2.588;2023-11-19T03:52:25;38.15;;;4.60;;
66970;SDS011;53901;51.466;-2.588;2023-11-19T03:54:52;35.47;;;5.05;;
66970;SDS011;53901;51.466;-2.588;2023-11-19T03:57:18;32.47;;;4.40;;
66970;SDS011;53901;51.466;-2.588;2023-11-19T03:59:43;38.65;;;4.80;;
66970;SDS011;53901;51.466;-2.588;2023-11-19T04:02:09;37.50;;;4.38;;
66970;SDS011;53901;51.466;-2.588;2023-11-19T04:04:35;41.47;;;4.50;;
66970;SDS011;53901;51.466;-2.588;2023-11-19T04:07:00;39.95;;;5.20;;
66970;SDS011;53901;51.466;-2.588;2023-11-19T04:09:27;36.00;;;4.35;;
66970;SDS011;53901;51.466;-2.588;2023-11-19T04:11:53;29.90;;;3.47;;
66970;SDS011;53901;51.466;-2.588;2023-11-19T04:14:18;29.50;;;4.15;;
66970;SDS011;53901;51.466;-2.588;2023-11-19T04:16:44;24.48;;;3.13;;
66970;SDS011;53901;51.466;-2.588;2023-11-19T04:19:10;24.50;;;4.25;;
66970;SDS011;53901;51.466;-2.588;2023-11-19T04:21:36;30.05;;;4.50;;
66970;SDS011;53901;51.466;-2.588;2023-11-19T04:24:01;25.85;;;3.53;;
66970;SDS011;53901;51.466;-2.588;2023-11-19T04:26:26;31.27;;;3.92;;
66970;SDS011;53901;51.466;-2.588;2023-11-19T04:28:52;30.33;;;3.65;;
66970;SDS011;53901;51.466;-2.588;2023-11-19T04:31:17;30.20;;;3.97;;
66970;SDS011;53901;51.466;-2.588;2023-11-19T04:33:43;34.65;;;4.30;;
66970;SDS011;53901;51.466;-2.588;2023-11-19T04:36:09;28.70;;;4.05;;
66970;SDS011;53901;51.466;-2.588;2023-11-19T04:38:35;27.02;;;3.33;;
66970;SDS011;53901;51.466;-2.588;2023-11-19T04:41:00;27.42;;;3.67;;
66970;SDS011;53901;51.466;-2.588;2023-11-19T04:43:27;30.65;;;4.47;;
66970;SDS011;53901;51.466;-2.588;2023-11-19T04:45:52;21.67;;;3.63;;
66970;SDS011;53901;51.466;-2.588;2023-11-19T04:48:18;29.83;;;3.75;;
66970;SDS011;53901;51.466;-2.588;2023-11-19T04:50:43;32.53;;;4.68;;
66970;SDS011;53901;51.466;-2.588;2023-11-19T04:53:08;26.23;;;4.03;;
66970;SDS011;53901;51.466;-2.588;2023-11-19T04:55:34;29.35;;;4.80;;
66970;SDS011;53901;51.466;-2.588;2023-11-19T04:57:59;29.75;;;4.10;;
66970;SDS011;53901;51.466;-2.588;2023-11-19T05:00:24;38.15;;;5.32;;
66970;SDS011;53901;51.466;-2.588;2023-11-19T05:02:50;28.52;;;4.10;;
66970;SDS011;53901;51.466;-2.588;2023-11-19T05:05:16;30.10;;;4.38;;
66970;SDS011;53901;51.466;-2.588;2023-11-19T05:07:42;24.42;;;3.20;;
66970;SDS011;53901;51.466;-2.588;2023-11-19T05:10:07;24.90;;;4.03;;
66970;SDS011;53901;51.466;-2.588;2023-11-19T05:12:33;25.00;;;4.03;;
66970;SDS011;53901;51.466;-2.588;2023-11-19T05:14:59;28.33;;;3.35;;
66970;SDS011;53901;51.466;-2.588;2023-11-19T05:17:25;37.03;;;4.13;;
66970;SDS011;53901;51.466;-2.588;2023-11-19T05:19:50;26.77;;;3.70;;
66970;SDS011;53901;51.466;-2.588;2023-11-19T05:22:16;32.42;;;4.25;;
66970;SDS011;53901;51.466;-2.588;2023-11-19T05:24:42;27.30;;;3.10;;
66970;SDS011;53901;51.466;-2.588;2023-11-19T05:27:07;31.55;;;3.72;;
66970;SDS011;53901;51.466;-2.588;2023-11-19T05:29:33;26.98;;;3.03;;
66970;SDS011;53901;51.466;-2.588;2023-11-19T05:31:58;29.42;;;4.68;;
66970;SDS011;53901;51.466;-2.588;2023-11-19T05:34:24;28.35;;;3.72;;
66970;SDS011;53901;51.466;-2.588;2023-11-19T05:36:50;28.38;;;3.85;;
66970;SDS011;53901;51.466;-2.588;2023-11-19T05:39:15;34.05;;;5.05;;
66970;SDS011;53901;51.466;-2.588;2023-11-19T05:41:41;27.33;;;3.97;;
66970;SDS011;53901;51.466;-2.588;2023-11-19T05:44:06;29.20;;;4.68;;
66970;SDS011;53901;51.466;-2.588;2023-11-19T05:46:32;42.90;;;4.40;;
66970;SDS011;53901;51.466;-2.588;2023-11-19T05:48:57;27.52;;;4.03;;
66970;SDS011;53901;51.466;-2.588;2023-11-19T05:51:22;20.92;;;3.80;;
66970;SDS011;53901;51.466;-2.588;2023-11-19T05:53:49;29.33;;;3.63;;
66970;SDS011;53901;51.466;-2.588;2023-11-19T05:56:15;26.88;;;4.32;;
66970;SDS011;53901;51.466;-2.588;2023-11-19T05:58:46;23.83;;;3.40;;
66970;SDS011;53901;51.466;-2.588;2023-11-19T06:01:14;23.00;;;3.70;;
66970;SDS011;53901;51.466;-2.588;2023-11-19T06:03:39;34.38;;;3.75;;
66970;SDS011;53901;51.466;-2.588;2023-11-19T06:06:04;24.77;;;3.72;;
66970;SDS011;53901;51.466;-2.588;2023-11-19T06:08:31;35.97;;;4.47;;
66970;SDS011;53901;51.466;-2.588;2023-11-19T06:10:56;33.33;;;4.85;;
66970;SDS011;53901;51.466;-2.588;2023-11-19T06:13:22;31.42;;;3.83;;
66970;SDS011;53901;51.466;-2.588;2023-11-19T06:15:47;31.23;;;4.47;;
66970;SDS011;53901;51.466;-2.588;2023-11-19T06:18:12;25.40;;;3.92;;
66970;SDS011;53901;51.466;-2.588;2023-11-19T06:20:39;28.77;;;3.70;;
66970;SDS011;53901;51.466;-2.588;2023-11-19T06:23:05;21.35;;;3.15;;
66970;SDS011;53901;51.466;-2.588;2023-11-19T06:25:30;23.67;;;4.45;;
66970;SDS011;53901;51.466;-2.588;2023-11-19T06:27:56;25.67;;;3.88;;
66970;SDS011;53901;51.466;-2.588;2023-11-19T06:30:22;23.17;;;4.13;;
66970;SDS011;53901;51.466;-2.588;2023-11-19T06:32:47;20.27;;;3.63;;
66970;SDS011;53901;51.466;-2.588;2023-11-19T06:35:13;24.33;;;3.15;;
66970;SDS011;53901;51.466;-2.588;2023-11-19T06:37:39;19.50;;;3.33;;
66970;SDS011;53901;51.466;-2.588;2023-11-19T06:40:05;22.63;;;3.35;;
66970;SDS011;53901;51.466;-2.588;2023-11-19T06:42:31;25.60;;;3.63;;
66970;SDS011;53901;51.466;-2.588;2023-11-19T06:44:57;26.63;;;3.40;;
66970;SDS011;53901;51.466;-2.588;2023-11-19T06:47:25;27.77;;;3.33;;
66970;SDS011;53901;51.466;-2.588;2023-11-19T06:49:51;18.13;;;2.80;;
66970;SDS011;53901;51.466;-2.588;2023-11-19T06:52:17;25.85;;;3.90;;
66970;SDS011;53901;51.466;-2.588;2023-11-19T06:54:42;25.15;;;3.97;;
66970;SDS011;53901;51.466;-2.588;2023-11-19T06:57:07;27.02;;;3.25;;
66970;SDS011;53901;51.466;-2.588;2023-11-19T06:59:34;22.05;;;3.45;;
66970;SDS011;53901;51.466;-2.588;2023-11-19T07:01:59;17.77;;;3.25;;
66970;SDS011;53901;51.466;-2.588;2023-11-19T07:04:25;25.92;;;4.05;;
66970;SDS011;53901;51.466;-2.588;2023-11-19T07:06:50;28.73;;;3.47;;
66970;SDS011;53901;51.466;-2.588;2023-11-19T07:09:18;19.50;;;2.92;;
66970;SDS011;53901;51.466;-2.588;2023-11-19T07:11:43;27.48;;;3.58;;
66970;SDS011;53901;51.466;-2.588;2023-11-19T07:14:10;16.00;;;2.65;;
66970;SDS011;53901;51.466;-2.588;2023-11-19T07:16:36;22.52;;;3.55;;
66970;SDS011;53901;51.466;-2.588;2023-11-19T07:19:02;23.67;;;2.90;;
66970;SDS011;53901;51.466;-2.588;2023-11-19T07:21:28;22.27;;;3.60;;
66970;SDS011;53901;51.466;-2.588;2023-11-19T07:23:54;14.60;;;2.40;;
66970;SDS011;53901;51.466;-2.588;2023-11-19T07:26:20;21.55;;;2.45;;
66970;SDS011;53901;51.466;-2.588;2023-11-19T07:28:46;20.45;;;3.03;;
66970;SDS011;53901;51.466;-2.588;2023-11-19T07:31:12;18.40;;;2.75;;
66970;SDS011;53901;51.466;-2.588;2023-11-19T07:33:39;23.75;;;3.58;;
66970;SDS011;53901;51.466;-2.588;2023-11-19T07:36:04;25.38;;;3.75;;
66970;SDS011;53901;51.466;-2.588;2023-11-19T07:38:30;26.85;;;3.03;;
66970;SDS011;53901;51.466;-2.588;2023-11-19T07:40:56;17.30;;;2.90;;
66970;SDS011;53901;51.466;-2.588;2023-11-19T07:43:21;22.88;;;3.08;;
66970;SDS011;53901;51.466;-2.588;2023-11-19T07:45:46;17.23;;;2.90;;
66970;SDS011;53901;51.466;-2.588;2023-11-19T07:48:12;23.63;;;3.90;;
66970;SDS011;53901;51.466;-2.588;2023-11-19T07:50:38;20.65;;;3.83;;
66970;SDS011;53901;51.466;-2.588;2023-11-19T07:53:07;29.63;;;3.65;;
66970;SDS011;53901;51.466;-2.588;2023-11-19T07:55:33;21.05;;;3.30;;
66970;SDS011;53901;51.466;-2.588;2023-11-19T07:57:59;21.13;;;3.50;;
66970;SDS011;53901;51.466;-2.588;2023-11-19T08:00:24;22.17;;;3.00;;
66970;SDS011;53901;51.466;-2.588;2023-11-19T08:02:50;17.02;;;3.08;;
66970;SDS011;53901;51.466;-2.588;2023-11-19T08:05:15;20.23;;;3.10;;
66970;SDS011;53901;51.466;-2.588;2023-11-19T08:07:40;20.77;;;3.15;;
66970;SDS011;53901;51.466;-2.588;2023-11-19T08:10:06;13.88;;;2.50;;
66970;SDS011;53901;51.466;-2.588;2023-11-19T08:12:35;27.25;;;4.35;;
66970;SDS011;53901;51.466;-2.588;2023-11-19T08:15:01;20.98;;;3.45;;
66970;SDS011;53901;51.466;-2.588;2023-11-19T08:17:27;25.20;;;3.90;;
66970;SDS011;53901;51.466;-2.588;2023-11-19T08:19:52;19.73;;;3.63;;
66970;SDS011;53901;51.466;-2.588;2023-11-19T08:22:18;22.90;;;3.45;;
66970;SDS011;53901;51.466;-2.588;2023-11-19T08:24:43;31.17;;;3.88;;
66970;SDS011;53901;51.466;-2.588;2023-11-19T08:27:08;24.85;;;3.95;;
66970;SDS011;53901;51.466;-2.588;2023-11-19T08:29:34;27.67;;;3.25;;
66970;SDS011;53901;51.466;-2.588;2023-11-19T08:32:02;23.27;;;3.38;;
66970;SDS011;53901;51.466;-2.588;2023-11-19T08:34:28;30.23;;;4.53;;
66970;SDS011;53901;51.466;-2.588;2023-11-19T08:36:53;25.98;;;3.95;;
66970;SDS011;53901;51.466;-2.588;2023-11-19T08:39:19;25.10;;;3.28;;
66970;SDS011;53901;51.466;-2.588;2023-11-19T08:41:46;37.08;;;4.25;;
66970;SDS011;53901;51.466;-2.588;2023-11-19T08:44:12;29.13;;;5.10;;
66970;SDS011;53901;51.466;-2.588;2023-11-19T08:46:48;24.67;;;4.03;;
66970;SDS011;53901;51.466;-2.588;2023-11-19T08:49:14;33.25;;;4.78;;
66970;SDS011;53901;51.466;-2.588;2023-11-19T08:51:39;30.60;;;3.95;;
66970;SDS011;53901;51.466;-2.588;2023-11-19T08:54:05;24.10;;;4.03;;
66970;SDS011;53901;51.466;-2.588;2023-11-19T08:56:30;32.53;;;3.88;;
66970;SDS011;53901;51.466;-2.588;2023-11-19T08:58:57;30.33;;;4.20;;
66970;SDS011;53901;51.466;-2.588;2023-11-19T09:01:23;25.02;;;3.20;;
66970;SDS011;53901;51.466;-2.588;2023-11-19T09:03:49;23.55;;;4.13;;
66970;SDS011;53901;51.466;-2.588;2023-11-19T09:06:15;20.30;;;3.35;;
66970;SDS011;53901;51.466;-2.588;2023-11-19T09:08:41;27.73;;;3.65;;
66970;SDS011;53901;51.466;-2.588;2023-11-19T09:11:07;24.27;;;3.35;;
66970;SDS011;53901;51.466;-2.588;2023-11-19T09:13:33;22.30;;;3.28;;
66970;SDS011;53901;51.466;-2.588;2023-11-19T09:15:59;21.92;;;3.78;;
66970;SDS011;53901;51.466;-2.588;2023-11-19T09:18:28;14.23;;;3.15;;
66970;SDS011;53901;51.466;-2.588;2023-11-19T09:20:54;23.35;;;3.40;;
66970;SDS011;53901;51.466;-2.588;2023-11-19T09:23:19;25.42;;;3.97;;
66970;SDS011;53901;51.466;-2.588;2023-11-19T09:25:44;24.38;;;3.13;;
66970;SDS011;53901;51.466;-2.588;2023-11-19T09:28:10;21.15;;;3.40;;
66970;SDS011;53901;51.466;-2.588;2023-11-19T09:30:35;26.05;;;3.50;;
66970;SDS011;53901;51.466;-2.588;2023-11-19T09:33:01;20.80;;;3.15;;
66970;SDS011;53901;51.466;-2.588;2023-11-19T09:35:26;21.13;;;3.15;;
66970;SDS011;53901;51.466;-2.588;2023-11-19T09:37:52;17.83;;;2.90;;
66970;SDS011;53901;51.466;-2.588;2023-11-19T09:40:17;20.20;;;3.92;;
66970;SDS011;53901;51.466;-2.588;2023-11-19T09:42:43;17.52;;;3.30;;
66970;SDS011;53901;51.466;-2.588;2023-11-19T09:45:15;20.02;;;3.08;;
66970;SDS011;53901;51.466;-2.588;2023-11-19T09:47:43;21.10;;;2.83;;
66970;SDS011;53901;51.466;-2.588;2023-11-19T09:50:17;25.95;;;2.67;;
66970;SDS011;53901;51.466;-2.588;2023-11-19T09:52:43;33.60;;;4.55;;
66970;SDS011;53901;51.466;-2.588;2023-11-19T09:55:12;17.50;;;2.92;;
66970;SDS011;53901;51.466;-2.588;2023-11-19T09:57:40;21.10;;;3.70;;
66970;SDS011;53901;51.466;-2.588;2023-11-19T10:00:09;22.65;;;3.20;;
66970;SDS011;53901;51.466;-2.588;2023-11-19T10:02:37;21.70;;;3.35;;
66970;SDS011;53901;51.466;-2.588;2023-11-19T10:05:06;21.88;;;3.20;;
66970;SDS011;53901;51.466;-2.588;2023-11-19T10:07:32;25.15;;;3.88;;
66970;SDS011;53901;51.466;-2.588;2023-11-19T10:09:59;20.00;;;3.47;;
66970;SDS011;53901;51.466;-2.588;2023-11-19T10:12:26;18.02;;;2.80;;
66970;SDS011;53901;51.466;-2.588;2023-11-19T10:14:52;22.60;;;2.78;;
66970;SDS011;53901;51.466;-2.588;2023-11-19T10:17:18;29.35;;;3.63;;
66970;SDS011;53901;51.466;-2.588;2023-11-19T10:19:44;16.13;;;2.83;;
66970;SDS011;53901;51.466;-2.588;2023-11-19T10:22:09;28.17;;;3.22;;
66970;SDS011;53901;51.466;-2.588;2023-11-19T10:24:35;18.00;;;2.83;;
66970;SDS011;53901;51.466;-2.588;2023-11-19T10:27:04;23.98;;;3.00;;
66970;SDS011;53901;51.466;-2.588;2023-11-19T10:29:35;19.55;;;3.55;;
66970;SDS011;53901;51.466;-2.588;2023-11-19T10:32:04;16.67;;;2.42;;
66970;SDS011;53901;51.466;-2.588;2023-11-19T10:34:30;24.67;;;3.03;;
66970;SDS011;53901;51.466;-2.588;2023-11-19T10:36:55;14.70;;;2.83;;
66970;SDS011;53901;51.466;-2.588;2023-11-19T10:39:21;22.40;;;2.80;;
66970;SDS011;53901;51.466;-2.588;2023-11-19T10:41:48;16.58;;;3.58;;
66970;SDS011;53901;51.466;-2.588;2023-11-19T10:44:28;11.48;;;2.42;;
66970;SDS011;53901;51.466;-2.588;2023-11-19T10:46:56;13.15;;;2.08;;
66970;SDS011;53901;51.466;-2.588;2023-11-19T10:49:21;14.65;;;2.58;;
66970;SDS011;53901;51.466;-2.588;2023-11-19T10:51:47;14.40;;;2.35;;
66970;SDS011;53901;51.466;-2.588;2023-11-19T10:54:13;16.67;;;2.60;;
66970;SDS011;53901;51.466;-2.588;2023-11-19T10:56:40;9.00;;;1.90;;
66970;SDS011;53901;51.466;-2.588;2023-11-19T10:59:06;10.38;;;2.00;;
66970;SDS011;53901;51.466;-2.588;2023-11-19T11:01:39;7.05;;;1.80;;
66970;SDS011;53901;51.466;-2.588;2023-11-19T11:06:40;12.88;;;1.90;;
66970;SDS011;53901;51.466;-2.588;2023-11-19T11:09:06;11.88;;;1.67;;
66970;SDS011;53901;51.466;-2.588;2023-11-19T11:11:37;16.55;;;2.17;;
66970;SDS011;53901;51.466;-2.588;2023-11-19T11:14:03;8.15;;;1.73;;
66970;SDS011;53901;51.466;-2.588;2023-11-19T11:16:29;10.07;;;2.00;;
66970;SDS011;53901;51.466;-2.588;2023-11-19T11:18:56;7.40;;;1.55;;
66970;SDS011;53901;51.466;-2.588;2023-11-19T11:21:23;12.88;;;1.98;;
66970;SDS011;53901;51.466;-2.588;2023-11-19T11:29:41;13.85;;;2.17;;
66970;SDS011;53901;51.466;-2.588;2023-11-19T11:37:45;9.80;;;2.15;;
66970;SDS011;53901;51.466;-2.588;2023-11-19T11:40:17;10.98;;;1.48;;
66970;SDS011;53901;51.466;-2.588;2023-11-19T11:42:48;11.30;;;1.77;;
66970;SDS011;53901;51.466;-2.588;2023-11-19T11:45:14;14.25;;;2.22;;
66970;SDS011;53901;51.466;-2.588;2023-11-19T11:50:08;8.13;;;1.77;;
66970;SDS011;53901;51.466;-2.588;2023-11-19T11:52:48;10.07;;;1.80;;
66970;SDS011;53901;51.466;-2.588;2023-11-19T11:55:36;7.28;;;1.63;;
66970;SDS011;53901;51.466;-2.588;2023-11-19T11:58:05;12.65;;;1.88;;
66970;SDS011;53901;51.466;-2.588;2023-11-19T12:00:37;8.27;;;1.52;;
66970;SDS011;53901;51.466;-2.588;2023-11-19T12:03:05;9.73;;;1.85;;
66970;SDS011;53901;51.466;-2.588;2023-11-19T12:05:32;9.05;;;1.60;;
66970;SDS011;53901;51.466;-2.588;2023-11-19T12:08:05;11.30;;;2.13;;
66970;SDS011;53901;51.466;-2.588;2023-11-19T12:10:33;11.32;;;1.48;;
66970;SDS011;53901;51.466;-2.588;2023-11-19T12:13:03;10.30;;;1.77;;
66970;SDS011;53901;51.466;-2.588;2023-11-19T12:15:31;13.23;;;1.80;;
66970;SDS011;53901;51.466;-2.588;2023-11-19T12:17:57;9.77;;;1.85;;
66970;SDS011;53901;51.466;-2.588;2023-11-19T12:20:23;8.48;;;2.00;;
66970;SDS011;53901;51.466;-2.588;2023-11-19T12:22:50;7.70;;;1.58;;
66970;SDS011;53901;51.466;-2.588;2023-11-19T12:25:16;8.98;;;1.60;;
66970;SDS011;53901;51.466;-2.588;2023-11-19T12:27:44;9.82;;;1.70;;
66970;SDS011;53901;51.466;-2.588;2023-11-19T12:30:10;8.05;;;1.50;;
66970;SDS011;53901;51.466;-2.588;2023-11-19T12:35:09;7.38;;;1.50;;
66970;SDS011;53901;51.466;-2.588;2023-11-19T12:37:41;9.38;;;1.50;;
66970;SDS011;53901;51.466;-2.588;2023-11-19T12:40:14;8.20;;;1.63;;
66970;SDS011;53901;51.466;-2.588;2023-11-19T12:42:40;15.05;;;2.17;;
66970;SDS011;53901;51.466;-2.588;2023-11-19T12:45:06;9.25;;;1.70;;
66970;SDS011;53901;51.466;-2.588;2023-11-19T12:47:33;11.10;;;1.55;;
66970;SDS011;53901;51.466;-2.588;2023-11-19T12:49:58;14.95;;;2.53;;
66970;SDS011;53901;51.466;-2.588;2023-11-19T12:52:24;15.70;;;2.63;;
66970;SDS011;53901;51.466;-2.588;2023-11-19T12:54:50;17.52;;;2.28;;
66970;SDS011;53901;51.466;-2.588;2023-11-19T12:57:16;19.98;;;3.53;;
66970;SDS011;53901;51.466;-2.588;2023-11-19T12:59:43;14.80;;;2.30;;
66970;SDS011;53901;51.466;-2.588;2023-11-19T13:02:20;17.27;;;3.17;;
66970;SDS011;53901;51.466;-2.588;2023-11-19T13:04:46;19.00;;;3.10;;
66970;SDS011;53901;51.466;-2.588;2023-11-19T13:07:11;19.60;;;2.90;;
66970;SDS011;53901;51.466;-2.588;2023-11-19T13:09:37;15.02;;;2.65;;
66970;SDS011;53901;51.466;-2.588;2023-11-19T13:12:11;14.65;;;3.10;;
66970;SDS011;53901;51.466;-2.588;2023-11-19T13:14:38;18.42;;;3.15;;
66970;SDS011;53901;51.466;-2.588;2023-11-19T13:17:03;19.55;;;2.67;;
66970;SDS011;53901;51.466;-2.588;2023-11-19T13:19:30;22.10;;;3.20;;
66970;SDS011;53901;51.466;-2.588;2023-11-19T13:21:56;24.48;;;3.65;;
66970;SDS011;53901;51.466;-2.588;2023-11-19T13:24:21;14.75;;;2.83;;
66970;SDS011;53901;51.466;-2.588;2023-11-19T13:26:46;26.25;;;4.03;;
66970;SDS011;53901;51.466;-2.588;2023-11-19T13:29:12;23.33;;;3.22;;
66970;SDS011;53901;51.466;-2.588;2023-11-19T13:31:37;19.42;;;3.38;;
66970;SDS011;53901;51.466;-2.588;2023-11-19T13:34:03;20.92;;;3.42;;
66970;SDS011;53901;51.466;-2.588;2023-11-19T13:36:28;24.02;;;3.88;;
66970;SDS011;53901;51.466;-2.588;2023-11-19T13:38:54;19.40;;;3.13;;
66970;SDS011;53901;51.466;-2.588;2023-11-19T13:41:24;29.05;;;3.38;;
66970;SDS011;53901;51.466;-2.588;2023-11-19T13:43:50;24.42;;;3.58;;
66970;SDS011;53901;51.466;-2.588;2023-11-19T13:46:16;23.45;;;4.07;;
66970;SDS011;53901;51.466;-2.588;2023-11-19T13:48:41;13.15;;;2.40;;
66970;SDS011;53901;51.466;-2.588;2023-11-19T13:51:06;28.02;;;4.43;;
66970;SDS011;53901;51.466;-2.588;2023-11-19T13:53:32;20.48;;;3.63;;
66970;SDS011;53901;51.466;-2.588;2023-11-19T13:55:58;28.80;;;4.35;;
66970;SDS011;53901;51.466;-2.588;2023-11-19T13:58:23;23.17;;;3.75;;
66970;SDS011;53901;51.466;-2.588;2023-11-19T14:00:49;25.23;;;4.25;;
66970;SDS011;53901;51.466;-2.588;2023-11-19T14:03:15;25.67;;;5.78;;
66970;SDS011;53901;51.466;-2.588;2023-11-19T14:05:41;17.80;;;3.08;;
66970;SDS011;53901;51.466;-2.588;2023-11-19T14:08:07;25.27;;;4.93;;
66970;SDS011;53901;51.466;-2.588;2023-11-19T14:10:38;36.13;;;5.22;;
66970;SDS011;53901;51.466;-2.588;2023-11-19T14:13:05;22.55;;;3.42;;
66970;SDS011;53901;51.466;-2.588;2023-11-19T14:15:30;22.60;;;3.35;;
66970;SDS011;53901;51.466;-2.588;2023-11-19T14:17:56;24.73;;;4.10;;
66970;SDS011;53901;51.466;-2.588;2023-11-19T14:20:21;23.90;;;4.28;;
66970;SDS011;53901;51.466;-2.588;2023-11-19T14:22:46;21.95;;;4.10;;
66970;SDS011;53901;51.466;-2.588;2023-11-19T14:25:14;24.98;;;3.75;;
66970;SDS011;53901;51.466;-2.588;2023-11-19T14:27:41;19.42;;;3.55;;
66970;SDS011;53901;51.466;-2.588;2023-11-19T14:30:11;25.77;;;3.05;;
66970;SDS011;53901;51.466;-2.588;2023-11-19T14:32:38;23.15;;;3.83;;
66970;SDS011;53901;51.466;-2.588;2023-11-19T14:35:04;19.75;;;3.75;;
66970;SDS011;53901;51.466;-2.588;2023-11-19T14:37:30;22.17;;;3.83;;
66970;SDS011;53901;51.466;-2.588;2023-11-19T14:39:56;20.38;;;3.22;;